Time,TemperatureF,DewpointF,PressureIn,WindDirection,WindDirectionDegrees,WindSpeedMPH,WindSpeedGustMPH,Humidity,HourlyPrecipIn,Conditions,Clouds,dailyrainin,SolarRadiationWatts/m^2,SoftwareType,DateUTC
2013-01-07 00:02:00,24.0,8.0,-100.00,South,184,4.0,5.0,50,-99.99,,,0.00,0.000000,,2013-01-07 07:02:00,
2013-01-07 00:11:00,24.0,8.0,-100.00,South,184,4.0,5.0,50,-99.99,,,0.00,0.000000,,2013-01-07 07:11:00,
2013-01-07 00:43:00,24.0,9.0,-100.00,SSE,160,4.0,6.0,51,0.00,,,0.00,0.000000,,2013-01-07 07:43:00,
2013-01-07 00:52:00,24.0,9.0,-100.00,SSE,160,4.0,6.0,51,0.00,,,0.00,0.000000,,2013-01-07 07:52:00,
2013-01-07 01:02:00,24.0,9.0,-100.00,SSE,160,4.0,6.0,51,0.00,,,0.00,0.000000,,2013-01-07 08:02:00,
2013-01-07 01:11:00,24.0,9.0,-100.00,SSE,160,4.0,6.0,51,0.00,,,0.00,0.000000,,2013-01-07 08:11:00,
2013-01-07 01:43:00,26.0,9.0,-100.00,SSE,157,5.0,7.0,49,0.00,,,0.00,0.000000,,2013-01-07 08:43:00,
2013-01-07 01:53:00,26.0,9.0,-100.00,SSE,157,5.0,7.0,49,0.00,,,0.00,0.000000,,2013-01-07 08:53:00,
2013-01-07 02:02:00,26.0,9.0,-100.00,SSE,157,5.0,7.0,49,0.00,,,0.00,0.000000,,2013-01-07 09:02:00,
2013-01-07 02:12:00,26.0,9.0,-100.00,SSE,157,5.0,7.0,49,0.00,,,0.00,0.000000,,2013-01-07 09:12:00,
2013-01-07 02:32:00,24.0,10.0,-100.00,SE,143,4.0,8.0,55,0.00,,,0.00,0.000000,,2013-01-07 09:32:00,
2013-01-07 02:42:00,24.0,10.0,-100.00,SE,143,4.0,8.0,55,0.00,,,0.00,0.000000,,2013-01-07 09:42:00,
2013-01-07 02:52:00,24.0,10.0,-100.00,SE,143,4.0,8.0,55,0.00,,,0.00,0.000000,,2013-01-07 09:52:00,
2013-01-07 03:02:00,24.0,10.0,-100.00,SE,143,4.0,8.0,55,0.00,,,0.00,0.000000,,2013-01-07 10:02:00,
2013-01-07 03:12:00,24.0,10.0,-100.00,SE,143,4.0,8.0,55,0.00,,,0.00,0.000000,,2013-01-07 10:12:00,
2013-01-07 03:33:00,24.0,8.0,-100.00,SE,137,6.0,8.0,49,0.00,,,0.00,0.000000,,2013-01-07 10:33:00,
2013-01-07 03:42:00,24.0,8.0,-100.00,SE,137,6.0,8.0,49,0.00,,,0.00,0.000000,,2013-01-07 10:42:00,
2013-01-07 03:52:00,24.0,8.0,-100.00,SE,137,6.0,8.0,49,0.00,,,0.00,0.000000,,2013-01-07 10:52:00,
2013-01-07 04:02:00,24.0,8.0,-100.00,SE,137,6.0,8.0,49,0.00,,,0.00,0.000000,,2013-01-07 11:02:00,
2013-01-07 04:12:00,24.0,8.0,-100.00,SE,137,6.0,8.0,49,0.00,,,0.00,0.000000,,2013-01-07 11:12:00,
2013-01-07 04:43:00,12.0,2.0,-100.00,SSW,201,2.0,6.0,64,0.00,,,0.00,0.000000,,2013-01-07 11:43:00,
2013-01-07 04:53:00,12.0,2.0,-100.00,SSW,201,2.0,6.0,64,0.00,,,0.00,0.000000,,2013-01-07 11:53:00,
2013-01-07 05:43:00,7.0,2.0,-100.00,SSW,195,1.0,3.0,80,-99.99,,,0.00,0.000000,,2013-01-07 12:43:00,
2013-01-07 05:53:00,7.0,2.0,-100.00,SSW,195,1.0,3.0,80,-99.99,,,0.00,0.000000,,2013-01-07 12:53:00,
2013-01-07 06:43:00,7.0,1.0,-100.00,SW,222,4.0,5.0,77,-99.99,,,0.00,0.000000,,2013-01-07 13:43:00,
2013-01-07 06:53:00,7.0,1.0,-100.00,SW,222,4.0,5.0,77,-99.99,,,0.00,0.000000,,2013-01-07 13:53:00,
2013-01-07 07:33:00,2.0,-4.0,-100.00,South,182,2.0,5.0,76,-99.99,,,0.00,0.000000,,2013-01-07 14:33:00,
2013-01-07 08:33:00,5.0,-3.0,-100.00,NE,36,2.0,6.0,69,-99.99,,,0.00,24.000000,,2013-01-07 15:33:00,
2013-01-07 09:43:00,18.0,5.0,-100.00,NNE,24,2.0,3.0,57,-99.99,,,0.00,195.000000,,2013-01-07 16:43:00,
2013-01-07 09:53:00,18.0,5.0,-100.00,NNE,24,2.0,3.0,57,-99.99,,,0.00,195.000000,,2013-01-07 16:53:00,
2013-01-07 10:02:00,18.0,5.0,-100.00,NNE,24,2.0,3.0,57,-99.99,,,0.00,195.000000,,2013-01-07 17:02:00,
2013-01-07 10:42:00,37.0,15.0,-100.00,SE,144,7.0,12.0,40,-99.99,,,-99.99,357.000000,,2013-01-07 17:42:00,
2013-01-07 10:53:00,37.0,15.0,-100.00,SE,144,7.0,12.0,40,-99.99,,,-99.99,357.000000,,2013-01-07 17:53:00,
2013-01-07 11:02:00,37.0,15.0,-100.00,SE,144,7.0,12.0,40,-99.99,,,-99.99,357.000000,,2013-01-07 18:02:00,
2013-01-07 11:12:00,37.0,15.0,-100.00,SE,144,7.0,12.0,40,-99.99,,,-99.99,357.000000,,2013-01-07 18:12:00,
2013-01-07 11:43:00,41.0,17.0,-100.00,SE,125,8.0,12.0,38,0.00,,,0.00,494.000000,,2013-01-07 18:43:00,
2013-01-07 11:53:00,41.0,17.0,-100.00,SE,125,8.0,12.0,38,0.00,,,0.00,494.000000,,2013-01-07 18:53:00,
2013-01-07 12:03:00,41.0,17.0,-100.00,SE,125,8.0,12.0,38,0.00,,,0.00,494.000000,,2013-01-07 19:03:00,
2013-01-07 12:12:00,41.0,17.0,-100.00,SE,125,8.0,12.0,38,0.00,,,0.00,494.000000,,2013-01-07 19:12:00,
2013-01-07 12:43:00,42.0,17.0,-100.00,North,2,8.0,14.0,36,0.00,,,0.00,575.000000,,2013-01-07 19:43:00,
2013-01-07 12:53:00,42.0,17.0,-100.00,North,2,8.0,14.0,36,0.00,,,0.00,575.000000,,2013-01-07 19:53:00,
2013-01-07 13:43:00,44.0,15.0,-100.00,NW,319,7.0,14.0,31,0.00,,,0.00,591.000000,,2013-01-07 20:43:00,
2013-01-07 13:53:00,44.0,15.0,-100.00,NW,319,7.0,14.0,31,0.00,,,0.00,591.000000,,2013-01-07 20:53:00,
2013-01-07 14:12:00,44.0,15.0,-100.00,NW,319,7.0,14.0,31,0.00,,,0.00,591.000000,,2013-01-07 21:12:00,
2013-01-07 14:33:00,43.0,10.0,-100.00,East,93,11.0,14.0,25,0.00,,,0.00,548.000000,,2013-01-07 21:33:00,
2013-01-07 14:43:00,43.0,10.0,-100.00,East,93,11.0,14.0,25,0.00,,,0.00,548.000000,,2013-01-07 21:43:00,
2013-01-07 14:53:00,43.0,10.0,-100.00,East,93,11.0,14.0,25,0.00,,,0.00,548.000000,,2013-01-07 21:53:00,
2013-01-07 15:02:00,43.0,10.0,-100.00,East,93,11.0,14.0,25,0.00,,,0.00,548.000000,,2013-01-07 22:02:00,
2013-01-07 15:12:00,43.0,10.0,-100.00,East,93,11.0,14.0,25,0.00,,,0.00,548.000000,,2013-01-07 22:12:00,
2013-01-07 15:43:00,40.0,15.0,-100.00,NNE,30,7.0,21.0,36,0.00,,,0.00,440.000000,,2013-01-07 22:43:00,
2013-01-07 15:53:00,40.0,15.0,-100.00,NNE,30,7.0,21.0,36,0.00,,,0.00,440.000000,,2013-01-07 22:53:00,
2013-01-07 16:02:00,40.0,15.0,-100.00,NNE,30,7.0,21.0,36,0.00,,,0.00,440.000000,,2013-01-07 23:02:00,
2013-01-07 16:12:00,40.0,15.0,-100.00,NNE,30,7.0,21.0,36,0.00,,,0.00,440.000000,,2013-01-07 23:12:00,
2013-01-07 16:33:00,37.0,11.0,-100.00,North,355,13.0,21.0,34,0.00,,,0.00,287.000000,,2013-01-07 23:33:00,
2013-01-07 16:43:00,37.0,11.0,-100.00,North,355,13.0,21.0,34,0.00,,,0.00,287.000000,,2013-01-07 23:43:00,
2013-01-07 16:53:00,37.0,11.0,-100.00,North,355,13.0,21.0,34,0.00,,,0.00,287.000000,,2013-01-07 23:53:00,
2013-01-07 17:02:00,37.0,11.0,-100.00,North,355,13.0,21.0,34,0.00,,,0.00,287.000000,,2013-01-08 00:02:00,
2013-01-07 17:12:00,37.0,11.0,-100.00,North,355,13.0,21.0,34,0.00,,,0.00,287.000000,,2013-01-08 00:12:00,
2013-01-07 17:43:00,33.0,8.0,-100.00,North,9,13.0,21.0,34,0.00,,,0.00,105.000000,,2013-01-08 00:43:00,
2013-01-07 17:52:00,33.0,8.0,-100.00,North,9,13.0,21.0,34,0.00,,,0.00,105.000000,,2013-01-08 00:52:00,
2013-01-07 18:02:00,33.0,8.0,-100.00,North,9,13.0,21.0,34,0.00,,,0.00,105.000000,,2013-01-08 01:02:00,
2013-01-07 18:12:00,33.0,8.0,-100.00,North,9,13.0,21.0,34,0.00,,,0.00,105.000000,,2013-01-08 01:12:00,
2013-01-07 18:42:00,27.0,6.0,-100.00,NNW,334,4.0,19.0,40,0.00,,,0.00,3.000000,,2013-01-08 01:42:00,
2013-01-07 18:52:00,27.0,6.0,-100.00,NNW,334,4.0,19.0,40,0.00,,,0.00,3.000000,,2013-01-08 01:52:00,
2013-01-07 19:02:00,27.0,6.0,-100.00,NNW,334,4.0,19.0,40,0.00,,,0.00,3.000000,,2013-01-08 02:02:00,
2013-01-07 19:12:00,27.0,6.0,-100.00,NNW,334,4.0,19.0,40,0.00,,,0.00,3.000000,,2013-01-08 02:12:00,
2013-01-07 19:43:00,28.0,6.0,-100.00,NW,315,11.0,17.0,39,0.00,,,0.00,0.000000,,2013-01-08 02:43:00,
2013-01-07 19:53:00,28.0,6.0,-100.00,NW,315,11.0,17.0,39,0.00,,,0.00,0.000000,,2013-01-08 02:53:00,
2013-01-07 20:03:00,28.0,6.0,-100.00,NW,315,11.0,17.0,39,0.00,,,0.00,0.000000,,2013-01-08 03:03:00,
2013-01-07 20:12:00,28.0,6.0,-100.00,NW,315,11.0,17.0,39,0.00,,,0.00,0.000000,,2013-01-08 03:12:00,
2013-01-07 20:33:00,27.0,6.0,-100.00,NW,313,11.0,17.0,41,0.00,,,0.00,0.000000,,2013-01-08 03:33:00,
2013-01-07 20:43:00,27.0,6.0,-100.00,NW,313,11.0,17.0,41,0.00,,,0.00,0.000000,,2013-01-08 03:43:00,
2013-01-07 20:53:00,27.0,6.0,-100.00,NW,313,11.0,17.0,41,0.00,,,0.00,0.000000,,2013-01-08 03:53:00,
2013-01-07 21:02:00,27.0,6.0,-100.00,NW,313,11.0,17.0,41,0.00,,,0.00,0.000000,,2013-01-08 04:02:00,
2013-01-07 21:12:00,27.0,6.0,-100.00,NW,313,11.0,17.0,41,0.00,,,0.00,0.000000,,2013-01-08 04:12:00,
2013-01-07 21:32:00,19.0,4.0,-100.00,SSW,198,6.0,15.0,51,0.00,,,0.00,0.000000,,2013-01-08 04:32:00,
2013-01-07 21:43:00,19.0,4.0,-100.00,SSW,198,6.0,15.0,51,0.00,,,0.00,0.000000,,2013-01-08 04:43:00,
2013-01-07 21:52:00,19.0,4.0,-100.00,SSW,198,6.0,15.0,51,0.00,,,0.00,0.000000,,2013-01-08 04:52:00,
2013-01-07 22:03:00,19.0,4.0,-100.00,SSW,198,6.0,15.0,51,0.00,,,0.00,0.000000,,2013-01-08 05:03:00,
2013-01-07 22:12:00,19.0,4.0,-100.00,SSW,198,6.0,15.0,51,0.00,,,0.00,0.000000,,2013-01-08 05:12:00,
2013-01-07 22:33:00,14.0,4.0,-100.00,SW,221,6.0,7.0,63,0.00,,,0.00,0.000000,,2013-01-08 05:33:00,
2013-01-07 22:43:00,14.0,4.0,-100.00,SW,221,6.0,7.0,63,0.00,,,0.00,0.000000,,2013-01-08 05:43:00,
2013-01-07 22:53:00,14.0,4.0,-100.00,SW,221,6.0,7.0,63,0.00,,,0.00,0.000000,,2013-01-08 05:53:00,
2013-01-07 23:02:00,14.0,4.0,-100.00,SW,221,6.0,7.0,63,0.00,,,0.00,0.000000,,2013-01-08 06:02:00,
2013-01-07 23:12:00,14.0,4.0,-100.00,SW,221,6.0,7.0,63,0.00,,,0.00,0.000000,,2013-01-08 06:12:00,
2013-01-07 23:33:00,10.0,1.0,-100.00,SW,231,4.0,6.0,66,0.00,,,0.00,0.000000,,2013-01-08 06:33:00,